Aviation Digital Data Service (ADDS)

Output produced by METARs form (0456 UTC 06 July 2015)
found at http://aviationweather.gov/adds/metars/
 
KROC 060314Z 0603/0624 VRB03KT P6SM BKN300 
     FM061400 15006KT P6SM SCT100 BKN250 
     FM062100 14008KT P6SM VCSH BKN060